createdAt,value
2019-04-22T00:02:17.480Z,3.83
2019-04-22T00:04:59.982Z,3.87
2019-04-22T00:07:44.972Z,3.80
2019-04-22T00:10:21.155Z,3.20
2019-04-22T00:12:57.755Z,4.10
2019-04-22T00:15:16.757Z,3.33
2019-04-22T00:18:11.642Z,3.80
2019-04-22T00:20:22.760Z,3.90
2019-04-22T00:22:52.320Z,3.20
2019-04-22T00:25:26.659Z,3.67
2019-04-22T00:27:56.741Z,3.50
2019-04-22T00:30:20.663Z,3.90
2019-04-22T00:33:03.182Z,3.60
2019-04-22T00:35:33.290Z,3.57
2019-04-22T00:38:26.578Z,3.53
2019-04-22T00:43:06.439Z,3.33
2019-04-22T00:45:40.039Z,3.43
2019-04-22T00:48:09.216Z,3.90
2019-04-22T00:51:01.588Z,3.43
2019-04-22T00:53:16.459Z,3.30
2019-04-22T00:56:10.623Z,3.93
2019-04-22T00:58:40.645Z,3.20
2019-04-22T01:01:17.475Z,3.60
2019-04-22T01:03:51.076Z,3.10
2019-04-22T01:06:16.082Z,2.83
2019-04-22T01:08:56.407Z,3.53
2019-04-22T01:11:16.943Z,3.67
2019-04-22T01:13:44.283Z,3.37
2019-04-22T01:16:18.924Z,3.67
2019-04-22T01:18:48.790Z,3.37
2019-04-22T01:23:49.153Z,3.90
2019-04-22T01:26:15.938Z,3.40
2019-04-22T01:28:46.435Z,3.90
2019-04-22T01:31:08.332Z,3.00
2019-04-22T01:33:41.037Z,3.60
2019-04-22T01:36:24.628Z,3.70
2019-04-22T01:38:58.499Z,3.50
2019-04-22T01:41:42.007Z,3.50
2019-04-22T01:44:15.829Z,3.67
2019-04-22T01:46:42.670Z,3.00
2019-04-22T01:49:07.893Z,3.30
2019-04-22T01:51:48.568Z,3.23
2019-04-22T01:54:12.280Z,3.50
2019-04-22T01:58:59.006Z,3.63
2019-04-22T02:01:46.477Z,3.53
2019-04-22T02:04:17.360Z,3.70
2019-04-22T02:11:53.377Z,3.30
2019-04-22T02:14:20.581Z,3.53
2019-04-22T02:16:50.294Z,3.60
2019-04-22T02:19:25.402Z,3.60
2019-04-22T02:21:51.111Z,4.03
2019-04-22T02:24:20.162Z,3.70
2019-04-22T02:26:51.959Z,3.90
2019-04-22T02:29:27.050Z,3.53
2019-04-22T02:31:59.435Z,3.37
2019-04-22T02:36:56.217Z,3.80
2019-04-22T02:39:38.804Z,3.30
2019-04-22T02:42:00.809Z,2.97
2019-04-22T02:44:31.423Z,3.90
2019-04-22T02:49:30.647Z,3.50
2019-04-22T02:52:06.401Z,4.40
2019-04-22T02:57:04.539Z,3.90
2019-04-22T02:59:32.582Z,3.37
2019-04-22T03:02:03.340Z,3.13
2019-04-22T03:04:35.586Z,3.60
2019-04-22T03:06:59.700Z,3.70
2019-04-22T03:17:10.687Z,3.63
2019-04-22T03:22:19.270Z,4.13
2019-04-22T03:25:24.212Z,3.57
2019-04-22T03:27:17.323Z,3.83
2019-04-22T03:33:04.866Z,3.83
2019-04-22T03:50:22.011Z,4.00
2019-04-22T03:52:47.169Z,3.57
2019-04-22T03:55:16.092Z,4.20
2019-04-22T03:57:50.067Z,4.13
2019-04-22T04:00:30.334Z,3.37
2019-04-22T04:02:54.825Z,4.60
2019-04-22T04:05:33.552Z,4.40
2019-04-22T04:07:55.222Z,3.57
2019-04-22T04:13:03.326Z,4.47
2019-04-22T04:17:57.109Z,3.90
2019-04-22T04:20:34.781Z,3.80
2019-04-22T04:23:08.395Z,4.37
2019-04-22T04:25:38.005Z,3.70
2019-04-22T04:28:24.335Z,3.57
2019-04-22T04:32:57.117Z,4.43
2019-04-22T04:36:03.405Z,4.40
2019-04-22T04:37:56.190Z,3.77
2019-04-22T04:40:33.200Z,3.73
2019-04-22T04:53:19.135Z,3.93
2019-04-22T04:55:47.073Z,4.70
2019-04-22T04:58:13.910Z,4.07
2019-04-22T05:00:52.463Z,4.40
2019-04-22T05:03:13.116Z,4.30
2019-04-22T05:05:39.817Z,4.37
2019-04-22T05:08:00.488Z,5.50
2019-04-22T05:13:16.771Z,4.73
2019-04-22T05:15:55.369Z,5.20
2019-04-22T05:20:56.491Z,4.90
2019-04-22T05:23:16.236Z,4.60
2019-04-22T05:25:38.192Z,4.63
2019-04-22T05:28:11.703Z,4.70
2019-04-22T05:30:50.318Z,4.90
2019-04-22T05:33:14.358Z,5.10
2019-04-22T05:35:46.353Z,5.20
2019-04-22T05:38:17.644Z,5.30
2019-04-22T05:40:41.115Z,5.27
2019-04-22T05:43:13.989Z,5.30
2019-04-22T05:45:44.488Z,5.53
2019-04-22T05:48:18.328Z,5.23
2019-04-22T05:50:54.576Z,5.50
2019-04-22T05:53:23.545Z,5.40
2019-04-22T05:55:58.535Z,5.57
2019-04-22T05:58:24.309Z,5.50
2019-04-22T06:01:35.697Z,5.60
2019-04-22T06:03:39.430Z,6.37
2019-04-22T06:06:12.626Z,5.23
2019-04-22T06:08:40.179Z,5.80
2019-04-22T06:11:16.823Z,5.70
2019-04-22T06:13:38.831Z,6.00
2019-04-22T06:16:20.516Z,5.50
2019-04-22T06:18:47.018Z,5.20
2019-04-22T06:21:20.247Z,6.33
2019-04-22T06:23:55.891Z,6.50
2019-04-22T06:31:28.332Z,6.53
2019-04-22T06:33:58.083Z,6.00
2019-04-22T06:36:24.477Z,6.60
2019-04-22T06:38:53.298Z,5.50
2019-04-22T06:41:40.275Z,6.30
2019-04-22T06:44:00.654Z,5.80
2019-04-22T06:46:31.868Z,6.27
2019-04-22T06:49:01.396Z,6.33
2019-04-22T06:51:27.003Z,5.40
2019-04-22T06:54:00.086Z,5.40
2019-04-22T06:56:27.449Z,6.17
2019-04-22T06:59:08.518Z,6.17
2019-04-22T07:01:40.206Z,6.27
2019-04-22T07:04:08.037Z,6.30
2019-04-22T07:06:41.881Z,6.00
2019-04-22T07:11:36.480Z,5.90
2019-04-22T07:14:07.120Z,5.67
2019-04-22T07:19:18.087Z,5.77
2019-04-22T07:21:57.268Z,6.30
2019-04-22T07:24:28.280Z,5.20
2019-04-22T07:26:49.182Z,5.70
2019-04-22T07:29:17.504Z,5.60
2019-04-22T07:31:52.974Z,6.20
2019-04-22T07:34:19.649Z,5.63
2019-04-22T07:37:13.078Z,5.53
2019-04-22T07:39:15.853Z,5.50
2019-04-22T07:42:10.766Z,5.20
2019-04-22T07:46:56.483Z,5.73
2019-04-22T07:49:25.830Z,6.00
2019-04-22T07:51:50.007Z,5.17
2019-04-22T07:54:26.309Z,5.43
2019-04-22T07:57:02.947Z,5.73
2019-04-22T07:59:30.687Z,5.73
2019-04-22T08:01:55.917Z,5.50
2019-04-22T08:09:43.006Z,6.40
2019-04-22T08:11:57.869Z,5.40
2019-04-22T08:14:34.523Z,5.87
2019-04-22T08:17:14.183Z,5.13
2019-04-22T08:19:40.456Z,5.53
2019-04-22T08:22:02.800Z,6.10
2019-04-22T08:29:46.709Z,4.80
2019-04-22T08:32:05.020Z,5.87
2019-04-22T08:34:39.711Z,4.70
2019-04-22T08:39:40.419Z,4.67
2019-04-22T08:42:17.733Z,5.30
2019-04-22T08:47:21.498Z,5.60
2019-04-22T08:49:57.233Z,5.33
2019-04-22T08:52:21.108Z,5.30
2019-04-22T08:54:51.251Z,4.53
2019-04-22T08:57:25.961Z,5.40
2019-04-22T08:59:50.145Z,5.47
2019-04-22T09:02:25.863Z,5.23
2019-04-22T09:05:11.878Z,5.37
2019-04-22T09:07:38.176Z,6.13
2019-04-22T09:10:00.057Z,5.63
2019-04-22T09:14:55.304Z,5.30
2019-04-22T09:17:47.372Z,4.73
2019-04-22T09:20:00.098Z,5.47
2019-04-22T09:22:47.080Z,5.33
2019-04-22T09:25:03.736Z,5.13
2019-04-22T09:27:38.042Z,4.70
2019-04-22T09:30:06.170Z,5.00
2019-04-22T09:35:03.404Z,4.97
2019-04-22T09:37:39.294Z,5.17
2019-04-22T09:40:20.246Z,4.53
2019-04-22T09:42:43.826Z,4.70
2019-04-22T09:45:11.316Z,5.20
2019-04-22T09:47:53.628Z,4.90
2019-04-22T09:50:15.354Z,5.43
2019-04-22T09:52:48.943Z,4.13
2019-04-22T09:55:16.714Z,5.27
2019-04-22T09:57:46.995Z,4.40
2019-04-22T10:00:25.313Z,4.90
2019-04-22T10:02:56.930Z,5.23
2019-04-22T10:05:29.223Z,4.20
2019-04-22T10:08:03.258Z,4.90
2019-04-22T10:10:27.033Z,5.27
2019-04-22T10:12:53.987Z,4.70
2019-04-22T10:15:25.795Z,4.63
2019-04-22T10:17:58.224Z,4.40
2019-04-22T10:20:31.417Z,4.50
2019-04-22T10:23:07.977Z,4.47
2019-04-22T10:25:35.362Z,4.80
2019-04-22T10:28:09.209Z,4.63
2019-04-22T10:30:45.541Z,4.60
2019-04-22T10:32:59.428Z,5.20
2019-04-22T10:35:18.296Z,5.00
2019-04-22T10:37:42.903Z,4.40
2019-04-22T10:40:21.761Z,5.07
2019-04-22T10:42:51.438Z,4.70
2019-04-22T10:45:21.949Z,5.07
2019-04-22T10:47:52.249Z,4.83
2019-04-22T10:50:26.052Z,5.17
2019-04-22T10:52:55.311Z,5.10
2019-04-22T10:55:25.433Z,4.50
2019-04-22T10:57:54.809Z,4.53
2019-04-22T11:00:25.305Z,4.27
2019-04-22T11:02:54.378Z,4.10
2019-04-22T11:05:24.094Z,4.43
2019-04-22T11:07:59.032Z,4.70
2019-04-22T11:10:36.783Z,4.10
2019-04-22T11:12:54.790Z,4.37
2019-04-22T11:15:24.500Z,4.47
2019-04-22T11:17:53.623Z,4.90
2019-04-22T11:20:23.797Z,4.13
2019-04-22T11:22:53.107Z,4.53
2019-04-22T11:25:23.450Z,4.67
2019-04-22T11:27:53.703Z,3.73
2019-04-22T11:30:25.951Z,4.50
2019-04-22T11:32:54.392Z,4.30
2019-04-22T11:35:23.854Z,4.67
2019-04-22T11:37:53.041Z,4.40
2019-04-22T11:40:28.528Z,4.50
2019-04-22T11:42:54.297Z,4.90
2019-04-22T11:45:23.643Z,4.67
2019-04-22T11:47:53.100Z,4.47
2019-04-22T11:50:24.213Z,4.90
2019-04-22T11:52:54.996Z,4.30
2019-04-22T11:55:26.852Z,4.87
2019-04-22T11:57:56.256Z,4.77
2019-04-22T12:00:30.837Z,4.20
2019-04-22T12:03:00.835Z,5.00
2019-04-22T12:05:30.284Z,5.33
2019-04-22T12:07:59.369Z,4.50
2019-04-22T12:10:36.671Z,4.70
2019-04-22T12:13:01.930Z,4.43
2019-04-22T12:15:31.202Z,4.40
2019-04-22T12:18:01.478Z,4.30
2019-04-22T12:20:30.549Z,4.20
2019-04-22T12:23:01.025Z,3.93
2019-04-22T12:25:42.325Z,5.17
2019-04-22T12:28:03.344Z,4.40
2019-04-22T12:30:33.398Z,4.47
2019-04-22T12:33:02.606Z,4.60
2019-04-22T12:35:32.742Z,4.50
2019-04-22T12:38:06.491Z,4.43
2019-04-22T12:40:40.799Z,4.90
2019-04-22T12:43:05.863Z,4.23
2019-04-22T12:45:34.224Z,4.47
2019-04-22T12:48:04.232Z,4.30
2019-04-22T12:50:37.227Z,4.40
2019-04-22T12:53:10.437Z,4.50
2019-04-22T12:55:34.906Z,4.40
2019-04-22T12:58:05.326Z,4.50
2019-04-22T13:00:36.223Z,4.90
2019-04-22T13:03:05.369Z,4.60
2019-04-22T13:05:35.274Z,4.57
2019-04-22T13:08:05.634Z,5.07
2019-04-22T13:10:45.656Z,4.00
2019-04-22T13:13:09.187Z,4.57
2019-04-22T13:15:39.218Z,4.43
2019-04-22T13:18:17.089Z,4.13
2019-04-22T13:20:39.182Z,4.50
2019-04-22T13:23:09.426Z,4.50
2019-04-22T13:25:38.965Z,4.60
2019-04-22T13:28:09.384Z,4.90
2019-04-22T13:30:38.720Z,4.20
2019-04-22T13:33:07.807Z,5.13
2019-04-22T13:35:36.857Z,4.80
2019-04-22T13:38:06.925Z,4.63
2019-04-22T13:40:37.084Z,6.10
2019-04-22T13:43:07.104Z,5.10
2019-04-22T13:45:36.290Z,5.33
2019-04-22T13:48:21.988Z,4.20
2019-04-22T13:51:05.705Z,6.03
2019-04-22T13:58:18.520Z,5.40
2019-04-22T14:00:40.490Z,5.43
2019-04-22T14:03:41.593Z,4.67
2019-04-22T14:06:13.053Z,4.60
2019-04-22T14:08:43.132Z,4.20
2019-04-22T14:11:23.305Z,5.20
2019-04-22T14:13:43.847Z,4.63
2019-04-22T14:16:13.294Z,4.30
2019-04-22T14:18:44.594Z,4.03
2019-04-22T14:21:14.795Z,4.60
2019-04-22T14:23:44.722Z,4.23
2019-04-22T14:26:15.465Z,4.40
2019-04-22T14:28:45.895Z,4.80
2019-04-22T14:31:15.051Z,4.30
2019-04-22T14:33:46.609Z,5.10
2019-04-22T14:36:15.193Z,4.57
2019-04-22T14:38:44.319Z,5.37
2019-04-22T14:41:32.757Z,4.77
2019-04-22T14:44:49.497Z,4.77
2019-04-22T14:46:39.403Z,4.30
2019-04-22T14:49:11.828Z,4.30
2019-04-22T14:51:42.805Z,3.90
2019-04-22T14:54:08.586Z,4.50
2019-04-22T14:56:18.163Z,4.20
2019-04-22T14:58:47.122Z,4.20
2019-04-22T15:01:17.025Z,4.27
2019-04-22T15:03:48.374Z,4.40
2019-04-22T15:06:18.159Z,4.57
2019-04-22T15:08:47.304Z,5.27
2019-04-22T15:11:24.469Z,4.20
2019-04-22T15:13:53.620Z,4.70
2019-04-22T15:16:55.052Z,4.23
2019-04-22T15:19:33.772Z,4.33
2019-04-22T15:22:03.122Z,4.80
2019-04-22T15:24:32.279Z,4.77
2019-04-22T15:27:02.595Z,4.60
2019-04-22T15:29:31.767Z,3.67
2019-04-22T15:32:00.747Z,4.20
2019-04-22T15:34:30.661Z,3.60
2019-04-22T15:37:00.168Z,4.23
2019-04-22T15:39:29.385Z,4.60
2019-04-22T15:42:11.326Z,4.30
2019-04-22T15:44:30.452Z,4.30
2019-04-22T15:47:00.909Z,4.03
2019-04-22T15:49:30.174Z,3.97
2019-04-22T15:52:01.132Z,4.00
2019-04-22T15:54:29.947Z,3.60
2019-04-22T15:57:02.158Z,3.50
2019-04-22T15:59:52.660Z,4.20
2019-04-22T16:02:04.011Z,4.53
2019-04-22T16:04:32.918Z,3.50
2019-04-22T16:07:03.269Z,4.40
2019-04-22T16:09:33.273Z,4.10
2019-04-22T16:12:15.102Z,4.00
2019-04-22T16:14:41.083Z,4.30
2019-04-22T16:17:04.441Z,4.00
2019-04-22T16:19:36.954Z,4.10
2019-04-22T16:22:11.152Z,4.80
2019-04-22T16:24:52.389Z,4.07
2019-04-22T16:27:24.673Z,4.10
2019-04-22T16:29:55.183Z,4.20
2019-04-22T16:32:25.452Z,4.10
2019-04-22T16:34:54.758Z,4.07
2019-04-22T16:37:24.951Z,3.87
2019-04-22T16:39:54.708Z,4.00
2019-04-22T16:42:34.122Z,4.20
2019-04-22T16:44:55.443Z,3.50
2019-04-22T16:47:25.706Z,3.93
2019-04-22T16:49:55.344Z,4.00
2019-04-22T16:52:25.850Z,3.30
2019-04-22T16:54:55.080Z,4.00
2019-04-22T16:57:24.081Z,3.03
2019-04-22T16:59:53.125Z,4.20
2019-04-22T17:02:52.199Z,3.67
2019-04-22T17:05:43.381Z,3.63
2019-04-22T17:08:12.521Z,4.00
2019-04-22T17:10:41.931Z,3.90
2019-04-22T17:13:17.511Z,3.87
2019-04-22T17:15:41.832Z,3.87
2019-04-22T17:18:10.774Z,4.10
2019-04-22T17:20:40.461Z,4.13
2019-04-22T17:23:09.777Z,3.83
2019-04-22T17:25:38.821Z,4.07
2019-04-22T17:28:07.924Z,4.20
2019-04-22T17:30:37.075Z,4.50
2019-04-22T17:33:06.092Z,4.13
2019-04-22T17:35:36.027Z,3.90
2019-04-22T17:38:16.335Z,5.03
2019-04-22T17:40:52.301Z,3.67
2019-04-22T17:43:36.623Z,3.20
2019-04-22T17:46:00.178Z,3.70
2019-04-22T17:48:49.146Z,3.70
2019-04-22T17:51:29.991Z,3.83
2019-04-22T17:53:56.658Z,4.10
2019-04-22T17:56:21.950Z,3.83
2019-04-22T17:58:51.169Z,4.10
2019-04-22T18:01:28.177Z,4.30
2019-04-22T18:03:40.963Z,3.97
2019-04-22T18:06:13.772Z,4.07
2019-04-22T18:08:54.964Z,3.37
2019-04-22T18:11:33.381Z,4.00
2019-04-22T18:14:00.168Z,4.20
2019-04-22T18:16:30.535Z,3.50
2019-04-22T18:19:00.607Z,3.80
2019-04-22T18:21:23.174Z,3.57
2019-04-22T18:23:49.582Z,3.80
2019-04-22T18:26:28.898Z,4.47
2019-04-22T18:29:02.216Z,4.17
2019-04-22T18:31:23.679Z,3.80
2019-04-22T18:33:58.061Z,3.73
2019-04-22T18:36:29.290Z,3.70
2019-04-22T18:39:11.473Z,4.80
2019-04-22T18:41:36.877Z,3.17
2019-04-22T18:44:06.173Z,3.70
2019-04-22T18:46:37.067Z,3.67
2019-04-22T18:49:07.779Z,3.70
2019-04-22T18:51:42.420Z,4.00
2019-04-22T18:54:33.409Z,3.90
2019-04-22T18:57:02.630Z,3.93
2019-04-22T18:59:22.530Z,3.37
2019-04-22T19:01:48.128Z,3.70
2019-04-22T19:04:26.558Z,3.90
2019-04-22T19:07:12.139Z,3.37
2019-04-22T19:09:51.644Z,4.10
2019-04-22T19:12:25.711Z,3.50
2019-04-22T19:14:54.986Z,4.20
2019-04-22T19:17:27.185Z,3.93
2019-04-22T19:19:49.991Z,4.53
2019-04-22T19:22:19.525Z,3.80
2019-04-22T19:24:41.827Z,4.10
2019-04-22T19:27:15.724Z,3.97
2019-04-22T19:29:53.994Z,5.53
2019-04-22T19:32:20.570Z,4.80
2019-04-22T19:34:51.367Z,5.00
2019-04-22T19:37:17.314Z,3.80
2019-04-22T19:40:01.167Z,4.17
2019-04-22T19:42:30.499Z,3.90
2019-04-22T19:44:53.233Z,3.40
2019-04-22T19:50:01.083Z,3.27
2019-04-22T19:52:28.821Z,3.30
2019-04-22T19:54:58.328Z,3.53
2019-04-22T19:57:22.432Z,3.70
2019-04-22T19:59:55.894Z,3.70
2019-04-22T20:03:09.377Z,3.70
2019-04-22T20:05:37.438Z,4.10
2019-04-22T20:08:07.311Z,3.40
2019-04-22T20:10:30.015Z,3.93
2019-04-22T20:13:03.299Z,3.70
2019-04-22T20:15:29.238Z,3.57
2019-04-22T20:20:42.185Z,3.67
2019-04-22T20:23:06.702Z,3.10
2019-04-22T20:25:34.929Z,3.53
2019-04-22T20:28:15.087Z,3.60
2019-04-22T20:30:39.720Z,3.50
2019-04-22T20:33:13.868Z,3.40
2019-04-22T20:35:43.673Z,3.97
2019-04-22T20:38:14.921Z,3.20
2019-04-22T20:40:44.027Z,3.47
2019-04-22T20:43:22.097Z,3.90
2019-04-22T20:45:46.451Z,3.40
2019-04-22T20:48:06.052Z,3.40
2019-04-22T20:50:48.079Z,3.90
2019-04-22T20:53:28.121Z,3.27
2019-04-22T20:55:52.503Z,3.20
2019-04-22T20:58:21.311Z,3.60
2019-04-22T21:00:45.290Z,3.50
2019-04-22T21:03:13.723Z,4.27
2019-04-22T21:05:46.030Z,3.77
2019-04-22T21:08:28.919Z,3.80
2019-04-22T21:10:47.754Z,3.70
2019-04-22T21:13:20.639Z,3.90
2019-04-22T21:15:59.217Z,4.10
2019-04-22T21:18:26.576Z,3.90
2019-04-22T21:21:04.282Z,4.30
2019-04-22T21:23:23.227Z,4.40
2019-04-22T21:26:00.888Z,3.87
2019-04-22T21:28:34.222Z,3.93
2019-04-22T21:30:56.807Z,4.23
2019-04-22T21:33:26.917Z,3.77
2019-04-22T21:38:34.227Z,4.63
2019-04-22T21:41:08.233Z,3.90
2019-04-22T21:43:40.337Z,3.73
2019-04-22T21:46:09.148Z,3.73
2019-04-22T21:48:52.794Z,4.17
2019-04-22T21:51:16.551Z,4.00
2019-04-22T21:53:43.503Z,5.00
2019-04-22T21:56:29.045Z,4.87
2019-04-22T21:58:53.111Z,3.47
2019-04-22T22:03:55.792Z,4.50
2019-04-22T22:06:15.215Z,3.90
2019-04-22T22:08:56.782Z,4.00
2019-04-22T22:11:27.748Z,3.97
2019-04-22T22:14:04.623Z,3.87
2019-04-22T22:16:25.082Z,3.50
2019-04-22T22:19:00.958Z,4.40
2019-04-22T22:21:55.460Z,3.97
2019-04-22T22:24:05.684Z,3.70
2019-04-22T22:26:35.119Z,3.70
2019-04-22T22:29:15.671Z,3.40
2019-04-22T22:31:43.240Z,3.33
2019-04-22T22:34:10.955Z,3.80
2019-04-22T22:36:29.619Z,3.47
2019-04-22T22:39:01.659Z,3.70
2019-04-22T22:41:16.813Z,3.90
2019-04-22T22:43:51.022Z,3.37
2019-04-22T22:46:29.301Z,3.63
2019-04-22T22:49:09.964Z,4.03
2019-04-22T22:51:51.811Z,3.77
2019-04-22T22:54:14.683Z,2.97
2019-04-22T22:56:47.484Z,3.10
2019-04-22T22:59:10.296Z,3.40
2019-04-22T23:01:45.363Z,3.50
2019-04-22T23:04:17.990Z,3.87
2019-04-22T23:06:45.526Z,3.97
2019-04-22T23:09:14.583Z,4.10
2019-04-22T23:14:16.612Z,3.90
2019-04-22T23:16:37.422Z,5.07
2019-04-22T23:19:06.471Z,3.90
2019-04-22T23:21:41.685Z,3.83
2019-04-22T23:24:26.514Z,3.67
2019-04-22T23:27:10.387Z,3.80
2019-04-22T23:29:57.490Z,3.90
2019-04-22T23:32:31.957Z,4.20
2019-04-22T23:35:15.373Z,4.50
2019-04-22T23:37:47.041Z,3.43
2019-04-22T23:40:21.806Z,3.97
2019-04-22T23:42:55.839Z,4.23
2019-04-22T23:45:22.584Z,4.10
2019-04-22T23:47:39.055Z,4.00
2019-04-22T23:50:19.675Z,4.37
2019-04-22T23:52:58.839Z,4.93
2019-04-22T23:55:32.439Z,4.00
2019-04-22T23:58:09.584Z,4.60
